createdAt,value
2018-08-25T00:01:10.948Z,13.10
2018-08-25T00:03:38.828Z,13.10
2018-08-25T00:06:06.585Z,13.10
2018-08-25T00:08:34.488Z,13.00
2018-08-25T00:11:02.421Z,13.00
2018-08-25T00:13:30.621Z,13.10
2018-08-25T00:15:58.559Z,13.10
2018-08-25T00:18:26.979Z,13.00
2018-08-25T00:21:01.677Z,13.10
2018-08-25T00:23:29.740Z,13.10
2018-08-25T00:25:57.547Z,13.20
2018-08-25T00:28:25.604Z,13.20
2018-08-25T00:30:59.104Z,13.20
2018-08-25T00:33:27.033Z,13.20
2018-08-25T00:35:55.066Z,13.20
2018-08-25T00:38:23.195Z,13.20
2018-08-25T00:40:51.588Z,13.20
2018-08-25T00:43:19.728Z,13.20
2018-08-25T00:45:47.807Z,13.10
2018-08-25T00:48:16.676Z,13.10
2018-08-25T00:50:44.777Z,13.10
2018-08-25T00:53:13.853Z,13.10
2018-08-25T00:55:41.545Z,13.00
2018-08-25T00:58:09.353Z,13.00
2018-08-25T01:00:37.597Z,13.00
2018-08-25T01:03:05.395Z,13.00
2018-08-25T01:05:33.215Z,13.00
2018-08-25T01:08:01.119Z,13.10
2018-08-25T01:10:29.064Z,13.10
2018-08-25T01:12:57.283Z,13.10
2018-08-25T01:15:25.390Z,13.00
2018-08-25T01:17:53.572Z,12.90
2018-08-25T01:20:21.761Z,12.90
2018-08-25T01:22:50.189Z,12.90
2018-08-25T01:25:17.870Z,12.90
2018-08-25T01:27:45.741Z,12.80
2018-08-25T01:30:13.569Z,12.80
2018-08-25T01:32:41.816Z,12.80
2018-08-25T01:35:09.743Z,12.80
2018-08-25T01:37:37.599Z,12.80
2018-08-25T01:40:06.093Z,12.80
2018-08-25T01:42:34.326Z,12.80
2018-08-25T01:45:02.238Z,12.70
2018-08-25T01:47:30.033Z,12.70
2018-08-25T01:49:57.780Z,12.70
2018-08-25T01:52:26.049Z,12.70
2018-08-25T01:54:54.523Z,12.60
2018-08-25T01:57:22.388Z,12.60
2018-08-25T01:59:50.775Z,12.60
2018-08-25T02:02:18.788Z,12.50
2018-08-25T02:04:46.601Z,12.50
2018-08-25T02:07:14.591Z,12.40
2018-08-25T02:09:42.639Z,12.30
2018-08-25T02:12:10.625Z,12.30
2018-08-25T02:14:38.727Z,12.30
2018-08-25T02:17:06.811Z,12.30
2018-08-25T02:19:34.675Z,12.30
2018-08-25T02:22:02.596Z,12.30
2018-08-25T02:24:30.912Z,12.20
2018-08-25T02:26:59.025Z,12.20
2018-08-25T02:29:27.077Z,12.20
2018-08-25T02:31:55.228Z,12.20
2018-08-25T02:34:23.341Z,12.20
2018-08-25T02:36:51.401Z,12.20
2018-08-25T02:39:18.995Z,12.20
2018-08-25T02:41:47.233Z,12.10
2018-08-25T02:44:15.398Z,12.10
2018-08-25T02:46:43.382Z,12.10
2018-08-25T02:49:11.335Z,12.00
2018-08-25T02:51:40.008Z,12.00
2018-08-25T02:54:07.715Z,12.00
2018-08-25T02:56:35.679Z,12.00
2018-08-25T02:59:04.311Z,11.90
2018-08-25T03:01:32.406Z,11.90
2018-08-25T03:04:00.300Z,11.90
2018-08-25T03:06:28.337Z,11.90
2018-08-25T03:08:56.277Z,11.80
2018-08-25T03:11:24.313Z,11.80
2018-08-25T03:13:53.053Z,11.80
2018-08-25T03:16:20.698Z,11.80
2018-08-25T03:18:48.644Z,11.70
2018-08-25T03:21:16.483Z,11.70
2018-08-25T03:23:44.304Z,11.60
2018-08-25T03:26:12.487Z,11.60
2018-08-25T03:28:40.406Z,11.60
2018-08-25T03:31:08.608Z,11.70
2018-08-25T03:33:36.382Z,11.60
2018-08-25T03:36:04.396Z,11.60
2018-08-25T03:38:32.234Z,11.60
2018-08-25T03:41:00.122Z,11.60
2018-08-25T03:46:10.701Z,11.50
2018-08-25T03:48:38.822Z,11.50
2018-08-25T03:51:06.669Z,11.50
2018-08-25T03:53:34.651Z,11.50
2018-08-25T03:56:02.463Z,11.40
2018-08-25T03:58:30.376Z,11.40
2018-08-25T04:00:58.278Z,11.30
2018-08-25T04:03:26.165Z,11.30
2018-08-25T04:05:53.811Z,11.20
2018-08-25T04:08:21.864Z,11.20
2018-08-25T04:10:49.605Z,11.10
2018-08-25T04:13:17.962Z,11.10
2018-08-25T04:15:45.852Z,11.10
2018-08-25T04:18:13.677Z,11.00
2018-08-25T04:20:41.816Z,10.90
2018-08-25T04:23:09.529Z,10.80
2018-08-25T04:25:37.441Z,10.80
2018-08-25T04:28:05.532Z,10.70
2018-08-25T04:30:33.505Z,10.60
2018-08-25T04:33:01.556Z,10.60
2018-08-25T04:35:29.815Z,10.50
2018-08-25T04:37:57.729Z,10.50
2018-08-25T04:40:25.973Z,10.40
2018-08-25T04:42:54.160Z,10.40
2018-08-25T04:45:22.112Z,10.40
2018-08-25T04:47:50.645Z,10.30
2018-08-25T04:50:18.815Z,10.30
2018-08-25T04:52:47.387Z,10.30
2018-08-25T04:55:15.823Z,10.20
2018-08-25T04:57:44.125Z,10.20
2018-08-25T05:00:12.218Z,10.20
2018-08-25T05:02:41.072Z,10.20
2018-08-25T05:05:08.871Z,10.20
2018-08-25T05:07:36.675Z,10.20
2018-08-25T05:10:04.559Z,10.20
2018-08-25T05:12:32.760Z,10.30
2018-08-25T05:15:01.105Z,10.40
2018-08-25T05:17:29.156Z,10.40
2018-08-25T05:19:56.975Z,10.50
2018-08-25T05:22:24.627Z,10.50
2018-08-25T05:24:52.270Z,10.50
2018-08-25T05:27:20.538Z,10.50
2018-08-25T05:29:48.366Z,10.50
2018-08-25T05:32:16.447Z,10.60
2018-08-25T05:34:44.299Z,10.60
2018-08-25T05:37:12.992Z,10.60
2018-08-25T05:39:41.018Z,10.70
2018-08-25T05:42:08.847Z,10.80
2018-08-25T05:44:36.787Z,10.80
2018-08-25T05:47:04.849Z,10.80
2018-08-25T05:49:32.708Z,10.90
2018-08-25T05:52:00.820Z,10.90
2018-08-25T05:54:28.742Z,11.00
2018-08-25T05:56:57.632Z,11.10
2018-08-25T05:59:25.547Z,11.20
2018-08-25T06:01:53.833Z,11.20
2018-08-25T06:04:21.885Z,11.30
2018-08-25T06:06:49.902Z,11.40
2018-08-25T06:09:18.732Z,11.50
2018-08-25T06:11:47.470Z,11.80
2018-08-25T06:14:16.058Z,12.30
2018-08-25T06:16:44.236Z,12.80
2018-08-25T06:19:12.354Z,13.20
2018-08-25T06:21:40.630Z,13.70
2018-08-25T06:24:09.416Z,14.20
2018-08-25T06:26:37.191Z,14.30
2018-08-25T06:29:05.200Z,14.20
2018-08-25T06:31:33.446Z,14.20
2018-08-25T06:34:01.389Z,14.40
2018-08-25T06:36:29.194Z,14.60
2018-08-25T06:38:57.156Z,14.90
2018-08-25T06:41:25.498Z,15.30
2018-08-25T06:43:53.322Z,15.80
2018-08-25T06:46:21.682Z,16.40
2018-08-25T06:48:50.426Z,16.80
2018-08-25T06:51:18.295Z,17.20
2018-08-25T06:53:46.627Z,17.50
2018-08-25T06:56:14.638Z,17.60
2018-08-25T06:58:42.463Z,17.80
2018-08-25T07:01:10.992Z,18.10
2018-08-25T07:03:38.849Z,18.20
2018-08-25T07:06:07.097Z,17.90
2018-08-25T07:08:35.045Z,17.50
2018-08-25T07:11:03.356Z,17.00
2018-08-25T07:13:32.063Z,16.60
2018-08-25T07:16:00.623Z,16.30
2018-08-25T07:18:28.824Z,16.20
2018-08-25T07:20:57.086Z,16.00
2018-08-25T07:23:27.696Z,15.90
2018-08-25T07:25:55.945Z,16.00
2018-08-25T07:28:24.776Z,16.10
2018-08-25T07:30:52.930Z,16.00
2018-08-25T07:33:21.092Z,15.90
2018-08-25T07:35:49.464Z,16.00
2018-08-25T07:38:17.600Z,16.00
2018-08-25T07:40:45.997Z,16.10
2018-08-25T07:43:14.137Z,16.00
2018-08-25T07:45:42.420Z,16.20
2018-08-25T07:48:10.441Z,16.50
2018-08-25T07:50:38.441Z,16.60
2018-08-25T07:53:06.217Z,16.70
2018-08-25T07:55:34.694Z,16.80
2018-08-25T07:58:03.011Z,16.70
2018-08-25T08:00:31.016Z,16.80
2018-08-25T08:02:59.242Z,16.90
2018-08-25T08:05:27.506Z,17.00
2018-08-25T08:07:55.424Z,16.90
2018-08-25T08:10:23.342Z,16.80
2018-08-25T08:12:51.665Z,16.70
2018-08-25T08:15:19.995Z,16.70
2018-08-25T08:17:48.437Z,16.60
2018-08-25T08:20:16.263Z,16.60
2018-08-25T08:22:45.126Z,16.60
2018-08-25T08:25:13.534Z,16.60
2018-08-25T08:27:41.358Z,16.70
2018-08-25T08:30:09.318Z,16.50
2018-08-25T08:32:38.306Z,16.40
2018-08-25T08:35:06.463Z,16.20
2018-08-25T08:37:35.150Z,16.10
2018-08-25T08:40:03.404Z,16.00
2018-08-25T08:42:32.792Z,16.00
2018-08-25T08:45:00.803Z,16.00
2018-08-25T08:47:29.004Z,15.90
2018-08-25T08:49:57.886Z,15.90
2018-08-25T08:52:25.953Z,16.00
2018-08-25T08:54:54.161Z,16.00
2018-08-25T08:57:22.072Z,16.00
2018-08-25T08:59:51.434Z,15.90
2018-08-25T09:02:19.665Z,15.80
2018-08-25T09:04:47.807Z,15.70
2018-08-25T09:07:16.092Z,15.80
2018-08-25T09:09:43.986Z,15.90
2018-08-25T09:12:12.676Z,15.90
2018-08-25T09:14:42.494Z,15.90
2018-08-25T09:17:10.622Z,16.00
2018-08-25T09:19:38.501Z,16.10
2018-08-25T09:22:06.809Z,16.10
2018-08-25T09:24:34.994Z,16.00
2018-08-25T09:27:02.849Z,15.80
2018-08-25T09:29:31.150Z,15.60
2018-08-25T09:31:59.055Z,15.60
2018-08-25T09:34:27.430Z,15.70
2018-08-25T09:36:56.118Z,15.70
2018-08-25T09:39:23.872Z,15.80
2018-08-25T09:41:51.699Z,15.80
2018-08-25T09:44:19.646Z,16.00
2018-08-25T09:46:47.800Z,15.80
2018-08-25T09:49:15.778Z,15.50
2018-08-25T09:51:43.712Z,15.50
2018-08-25T09:54:11.708Z,15.40
2018-08-25T09:56:40.130Z,15.00
2018-08-25T09:59:08.291Z,15.10
2018-08-25T10:01:42.201Z,15.10
2018-08-25T10:04:10.163Z,15.10
2018-08-25T10:06:38.907Z,15.00
2018-08-25T10:09:07.901Z,15.10
2018-08-25T10:11:36.135Z,15.10
2018-08-25T10:14:04.733Z,15.10
2018-08-25T10:16:33.189Z,15.10
2018-08-25T10:19:01.633Z,15.10
2018-08-25T10:21:29.374Z,15.00
2018-08-25T10:23:57.510Z,15.00
2018-08-25T10:26:25.824Z,15.20
2018-08-25T10:28:54.105Z,15.30
2018-08-25T10:31:22.433Z,15.30
2018-08-25T10:33:50.346Z,15.30
2018-08-25T10:36:18.359Z,15.20
2018-08-25T10:38:46.173Z,15.00
2018-08-25T10:41:14.408Z,14.70
2018-08-25T10:43:42.735Z,14.60
2018-08-25T10:46:10.999Z,14.50
2018-08-25T10:48:38.941Z,14.40
2018-08-25T10:51:07.414Z,14.20
2018-08-25T10:53:36.898Z,14.20
2018-08-25T10:56:05.205Z,14.00
2018-08-25T10:58:34.276Z,14.00
2018-08-25T11:01:02.475Z,14.00
2018-08-25T11:03:31.125Z,14.10
2018-08-25T11:06:00.154Z,14.20
2018-08-25T11:08:28.437Z,14.40
2018-08-25T11:10:56.712Z,14.70
2018-08-25T11:13:26.067Z,14.90
2018-08-25T11:15:54.120Z,15.20
2018-08-25T11:18:22.330Z,15.40
2018-08-25T11:20:51.199Z,15.40
2018-08-25T11:23:19.310Z,15.40
2018-08-25T11:25:48.025Z,15.60
2018-08-25T11:28:16.838Z,15.60
2018-08-25T11:30:45.649Z,15.60
2018-08-25T11:33:13.705Z,15.60
2018-08-25T11:35:41.741Z,15.40
2018-08-25T11:38:10.895Z,15.40
2018-08-25T11:40:38.731Z,15.30
2018-08-25T11:43:07.145Z,15.40
2018-08-25T11:45:35.873Z,15.50
2018-08-25T11:48:04.395Z,15.50
2018-08-25T11:50:32.874Z,15.60
2018-08-25T11:53:01.228Z,15.60
2018-08-25T11:55:29.658Z,15.50
2018-08-25T11:57:58.263Z,15.60
2018-08-25T12:00:26.495Z,15.60
2018-08-25T12:02:55.314Z,15.50
2018-08-25T12:05:23.585Z,15.40
2018-08-25T12:07:52.056Z,15.40
2018-08-25T12:10:20.371Z,15.30
2018-08-25T12:12:49.341Z,15.20
2018-08-25T12:15:17.729Z,15.00
2018-08-25T12:17:47.039Z,14.90
2018-08-25T12:20:14.820Z,14.80
2018-08-25T12:22:42.979Z,14.80
2018-08-25T12:25:12.011Z,14.70
2018-08-25T12:27:40.482Z,14.70
2018-08-25T12:30:09.074Z,14.70
2018-08-25T12:32:37.388Z,14.80
2018-08-25T12:35:05.933Z,14.90
2018-08-25T12:37:34.319Z,14.90
2018-08-25T12:40:02.932Z,15.10
2018-08-25T12:42:31.622Z,15.40
2018-08-25T12:45:00.949Z,15.70
2018-08-25T12:47:29.095Z,15.90
2018-08-25T12:49:58.029Z,16.00
2018-08-25T12:52:27.038Z,16.00
2018-08-25T12:54:55.090Z,16.00
2018-08-25T12:57:23.495Z,16.00
2018-08-25T12:59:52.253Z,16.20
2018-08-25T13:02:20.638Z,16.30
2018-08-25T13:04:49.229Z,16.40
2018-08-25T13:07:17.566Z,16.50
2018-08-25T13:09:45.813Z,16.50
2018-08-25T13:12:14.411Z,16.40
2018-08-25T13:14:43.260Z,16.60
2018-08-25T13:17:11.710Z,16.70
2018-08-25T13:19:39.854Z,16.80
2018-08-25T13:22:07.743Z,16.90
2018-08-25T13:24:36.180Z,17.00
2018-08-25T13:27:04.216Z,17.00
2018-08-25T13:29:32.244Z,17.00
2018-08-25T13:32:00.010Z,16.90
2018-08-25T13:34:28.027Z,16.90
2018-08-25T13:36:56.305Z,17.00
2018-08-25T13:39:24.323Z,17.00
2018-08-25T13:41:52.629Z,17.00
2018-08-25T13:44:20.952Z,17.20
2018-08-25T13:46:49.254Z,17.40
2018-08-25T13:49:17.911Z,17.60
2018-08-25T13:51:45.841Z,17.60
2018-08-25T13:54:14.221Z,17.70
2018-08-25T13:56:42.312Z,17.80
2018-08-25T13:59:10.515Z,17.80
2018-08-25T14:01:38.584Z,17.90
2018-08-25T14:04:06.881Z,18.00
2018-08-25T14:06:35.044Z,18.00
2018-08-25T14:09:04.644Z,18.00
2018-08-25T14:11:33.005Z,18.10
2018-08-25T14:14:01.374Z,18.00
2018-08-25T14:16:29.457Z,18.00
2018-08-25T14:18:58.930Z,18.00
2018-08-25T14:21:27.337Z,18.00
2018-08-25T14:23:55.502Z,18.00
2018-08-25T14:26:24.179Z,18.00
2018-08-25T14:28:53.214Z,18.00
2018-08-25T14:31:21.535Z,17.90
2018-08-25T14:33:51.097Z,17.60
2018-08-25T14:36:20.974Z,17.50
2018-08-25T14:38:50.263Z,17.50
2018-08-25T14:41:18.709Z,17.40
2018-08-25T14:43:46.820Z,17.50
2018-08-25T14:46:15.087Z,17.70
2018-08-25T14:48:43.484Z,17.80
2018-08-25T14:51:11.694Z,17.90
2018-08-25T14:53:40.413Z,17.70
2018-08-25T14:56:08.794Z,17.70
2018-08-25T14:58:37.050Z,17.80
2018-08-25T15:01:05.411Z,17.70
2018-08-25T15:03:33.578Z,17.80
2018-08-25T15:06:01.854Z,17.70
2018-08-25T15:08:29.914Z,17.70
2018-08-25T15:10:57.970Z,17.70
2018-08-25T15:13:27.612Z,17.60
2018-08-25T15:15:55.549Z,17.60
2018-08-25T15:18:23.692Z,17.50
2018-08-25T15:20:51.576Z,17.20
2018-08-25T15:23:19.638Z,17.10
2018-08-25T15:25:47.699Z,17.10
2018-08-25T15:28:16.374Z,17.10
2018-08-25T15:30:44.491Z,17.10
2018-08-25T15:33:12.395Z,17.00
2018-08-25T15:35:40.559Z,16.90
2018-08-25T15:38:08.988Z,16.80
2018-08-25T15:40:37.184Z,16.80
2018-08-25T15:43:05.955Z,16.80
2018-08-25T15:45:34.058Z,16.90
2018-08-25T15:48:01.959Z,17.00
2018-08-25T15:50:30.251Z,17.00
2018-08-25T15:52:58.329Z,17.10
2018-08-25T15:55:26.205Z,17.00
2018-08-25T15:57:54.542Z,17.10
2018-08-25T16:00:22.557Z,17.00
2018-08-25T16:02:51.453Z,16.90
2018-08-25T16:05:19.482Z,16.90
2018-08-25T16:07:47.825Z,16.90
2018-08-25T16:10:15.867Z,16.80
2018-08-25T16:12:43.789Z,16.70
2018-08-25T16:15:12.413Z,16.80
2018-08-25T16:17:40.521Z,16.80
2018-08-25T16:20:08.403Z,16.70
2018-08-25T16:22:36.997Z,16.70
2018-08-25T16:25:05.486Z,16.50
2018-08-25T16:27:33.418Z,16.40
2018-08-25T16:30:01.237Z,16.30
2018-08-25T16:32:30.117Z,16.20
2018-08-25T16:34:57.940Z,16.20
2018-08-25T16:37:26.376Z,16.20
2018-08-25T16:39:54.264Z,16.20
2018-08-25T16:42:22.408Z,16.20
2018-08-25T16:44:50.800Z,16.20
2018-08-25T16:47:18.899Z,16.30
2018-08-25T16:49:47.006Z,16.30
2018-08-25T16:52:15.060Z,16.30
2018-08-25T16:54:43.600Z,16.30
2018-08-25T16:57:11.797Z,16.30
2018-08-25T16:59:39.777Z,16.20
2018-08-25T17:02:08.142Z,16.10
2018-08-25T17:04:36.527Z,16.00
2018-08-25T17:07:05.787Z,15.90
2018-08-25T17:09:34.067Z,15.60
2018-08-25T17:12:02.254Z,15.50
2018-08-25T17:14:30.824Z,15.30
2018-08-25T17:16:58.895Z,15.30
2018-08-25T17:19:27.052Z,15.20
2018-08-25T17:21:55.085Z,15.10
2018-08-25T17:24:23.042Z,15.10
2018-08-25T17:26:51.235Z,15.00
2018-08-25T17:29:19.889Z,15.00
2018-08-25T17:31:47.939Z,14.90
2018-08-25T17:34:15.842Z,14.80
2018-08-25T17:36:45.062Z,14.60
2018-08-25T17:39:13.486Z,14.40
2018-08-25T17:41:41.725Z,14.30
2018-08-25T17:44:10.822Z,14.20
2018-08-25T17:46:38.898Z,14.20
2018-08-25T17:49:07.065Z,14.10
2018-08-25T17:51:35.478Z,14.00
2018-08-25T17:54:03.711Z,13.90
2018-08-25T17:56:32.590Z,13.80
2018-08-25T17:59:01.777Z,13.70
2018-08-25T18:01:30.069Z,13.50
2018-08-25T18:03:58.248Z,13.50
2018-08-25T18:06:26.656Z,13.50
2018-08-25T18:08:55.423Z,13.40
2018-08-25T18:11:23.821Z,13.30
2018-08-25T18:13:53.520Z,13.30
2018-08-25T18:16:22.006Z,13.20
2018-08-25T18:18:50.183Z,13.20
2018-08-25T18:21:18.089Z,13.20
2018-08-25T18:23:47.669Z,13.20
2018-08-25T18:26:15.811Z,13.20
2018-08-25T18:28:44.535Z,13.20
2018-08-25T18:31:12.828Z,13.10
2018-08-25T18:33:41.098Z,13.10
2018-08-25T18:36:09.721Z,13.10
2018-08-25T18:38:38.122Z,13.10
2018-08-25T18:41:06.078Z,13.00
2018-08-25T18:43:34.111Z,12.90
2018-08-25T18:46:02.528Z,12.90
2018-08-25T18:48:30.527Z,12.80
2018-08-25T18:50:59.010Z,12.90
2018-08-25T18:53:27.627Z,12.80
2018-08-25T18:55:55.985Z,12.80
2018-08-25T18:58:24.643Z,12.70
2018-08-25T19:00:53.554Z,12.70
2018-08-25T19:03:22.337Z,12.60
2018-08-25T19:05:50.144Z,12.50
2018-08-25T19:08:18.801Z,12.40
2018-08-25T19:10:47.539Z,12.30
2018-08-25T19:13:17.068Z,12.30
2018-08-25T19:15:46.149Z,12.30
2018-08-25T19:18:14.031Z,12.30
2018-08-25T19:20:43.320Z,12.20
2018-08-25T19:23:11.848Z,12.10
2018-08-25T19:25:40.480Z,12.10
2018-08-25T19:28:08.593Z,12.00
2018-08-25T19:31:39.957Z,11.90
2018-08-25T19:34:07.856Z,11.80
2018-08-25T19:36:35.774Z,11.70
2018-08-25T19:39:05.817Z,11.60
2018-08-25T19:41:34.103Z,11.50
2018-08-25T19:44:01.924Z,11.40
2018-08-25T19:46:30.127Z,11.40
2018-08-25T19:48:59.105Z,11.30
2018-08-25T19:51:27.536Z,11.20
2018-08-25T19:53:56.226Z,11.20
2018-08-25T19:56:24.690Z,11.10
2018-08-25T19:58:54.087Z,11.00
2018-08-25T20:01:23.642Z,11.00
2018-08-25T20:03:51.878Z,11.00
2018-08-25T20:06:23.364Z,11.00
2018-08-25T20:08:52.228Z,11.00
2018-08-25T20:11:21.253Z,11.00
2018-08-25T20:13:49.830Z,11.00
2018-08-25T20:16:18.835Z,11.00
2018-08-25T20:18:47.196Z,10.90
2018-08-25T20:21:15.724Z,10.90
2018-08-25T20:23:44.203Z,10.90
2018-08-25T20:26:13.847Z,10.80
2018-08-25T20:28:44.905Z,10.80
2018-08-25T20:31:14.136Z,10.70
2018-08-25T20:33:42.140Z,10.60
2018-08-25T20:36:10.620Z,10.50
2018-08-25T20:38:38.692Z,10.50
2018-08-25T20:41:06.923Z,10.50
2018-08-25T20:43:35.069Z,10.40
2018-08-25T20:46:03.747Z,10.30
2018-08-25T20:48:31.698Z,10.30
2018-08-25T20:50:59.785Z,10.20
2018-08-25T20:53:27.693Z,10.20
2018-08-25T20:55:55.750Z,10.10
2018-08-25T20:58:23.659Z,10.00
2018-08-25T21:00:52.214Z,9.90
2018-08-25T21:03:20.466Z,9.80
2018-08-25T21:05:48.385Z,9.70
2018-08-25T21:08:16.509Z,9.60
2018-08-25T21:10:44.741Z,9.60
2018-08-25T21:13:14.067Z,9.50
2018-08-25T21:15:42.079Z,9.50
2018-08-25T21:18:10.506Z,9.40
2018-08-25T21:20:39.281Z,9.40
2018-08-25T21:23:07.474Z,9.30
2018-08-25T21:25:35.531Z,9.30
2018-08-25T21:28:04.792Z,9.20
2018-08-25T21:30:32.898Z,9.10
2018-08-25T21:33:01.298Z,9.10
2018-08-25T21:35:29.966Z,9.10
2018-08-25T21:37:58.158Z,9.10
2018-08-25T21:40:26.200Z,9.00
2018-08-25T21:42:54.865Z,8.90
2018-08-25T21:45:23.035Z,8.80
2018-08-25T21:47:51.210Z,8.80
2018-08-25T21:50:20.201Z,8.80
2018-08-25T21:52:48.983Z,8.80
2018-08-25T21:55:17.043Z,8.80
2018-08-25T21:57:44.983Z,8.70
2018-08-25T22:00:19.551Z,8.70
2018-08-25T22:02:47.247Z,8.60
2018-08-25T22:05:15.379Z,8.60
2018-08-25T22:07:43.162Z,8.60
2018-08-25T22:10:11.464Z,8.50
2018-08-25T22:12:39.912Z,8.50
2018-08-25T22:15:07.958Z,8.50
2018-08-25T22:17:35.934Z,8.40
2018-08-25T22:20:05.072Z,8.40
2018-08-25T22:22:34.193Z,8.30
2018-08-25T22:25:02.461Z,8.30
2018-08-25T22:27:30.632Z,8.20
2018-08-25T22:29:58.950Z,8.20
2018-08-25T22:32:27.330Z,8.20
2018-08-25T22:34:55.499Z,8.20
2018-08-25T22:37:23.906Z,8.10
2018-08-25T22:39:51.872Z,8.10
2018-08-25T22:42:20.163Z,8.00
2018-08-25T22:44:48.495Z,7.90
2018-08-25T22:47:16.779Z,7.80
2018-08-25T22:49:45.093Z,7.90
2018-08-25T22:52:12.937Z,7.80
2018-08-25T22:54:40.800Z,7.80
2018-08-25T22:57:08.674Z,7.80
2018-08-25T22:59:36.950Z,7.70
2018-08-25T23:02:05.040Z,7.60
2018-08-25T23:04:32.856Z,7.40
2018-08-25T23:07:00.680Z,7.40
2018-08-25T23:09:28.599Z,7.40
2018-08-25T23:11:56.605Z,7.30
2018-08-25T23:14:24.841Z,7.30
2018-08-25T23:16:52.806Z,7.20
2018-08-25T23:19:20.725Z,7.20
2018-08-25T23:21:48.853Z,7.10
2018-08-25T23:24:16.886Z,7.10
2018-08-25T23:26:45.275Z,7.10
2018-08-25T23:29:12.908Z,7.00
2018-08-25T23:31:40.699Z,6.90
2018-08-25T23:34:09.081Z,6.90
2018-08-25T23:36:37.026Z,6.80
2018-08-25T23:39:07.231Z,6.80
2018-08-25T23:41:35.250Z,6.80
2018-08-25T23:44:03.212Z,6.80
2018-08-25T23:46:31.262Z,6.70
2018-08-25T23:48:59.556Z,6.70
2018-08-25T23:51:27.485Z,6.70
2018-08-25T23:54:10.094Z,6.70
2018-08-25T23:56:38.060Z,6.70
2018-08-25T23:59:06.085Z,6.70
